createdAt,value
2022-08-19T09:55:11.048Z,15.13
2022-08-19T09:57:38.880Z,14.43
2022-08-19T10:00:08.604Z,15.27
2022-08-19T10:02:36.286Z,16.23
2022-08-19T10:05:23.163Z,14.63
2022-08-19T10:07:53.728Z,14.73
2022-08-19T10:10:23.452Z,15.13
2022-08-19T10:12:51.290Z,15.13
2022-08-19T10:15:29.242Z,15.10
2022-08-19T10:17:56.674Z,14.23
2022-08-19T10:20:25.930Z,13.97
2022-08-19T10:22:52.534Z,13.77
2022-08-19T10:25:20.107Z,13.77
2022-08-19T10:27:51.140Z,14.50
2022-08-19T10:30:18.895Z,13.80
2022-08-19T10:32:47.183Z,13.87
2022-08-19T10:35:21.744Z,13.90
2022-08-19T10:37:57.441Z,14.10
2022-08-19T10:40:28.535Z,14.27
2022-08-19T10:42:59.070Z,14.17
2022-08-19T10:45:28.288Z,15.07
2022-08-19T10:47:55.112Z,14.03
2022-08-19T10:50:40.848Z,15.10
2022-08-19T10:53:11.990Z,13.83
2022-08-19T10:55:57.574Z,15.33
2022-08-19T10:58:25.891Z,14.20
2022-08-19T11:00:57.745Z,14.63
2022-08-19T11:03:25.646Z,14.57
2022-08-19T11:06:03.708Z,13.90
2022-08-19T11:08:31.735Z,13.90
2022-08-19T11:11:02.176Z,13.93
2022-08-19T11:13:30.252Z,13.53
2022-08-19T11:16:07.157Z,13.60
2022-08-19T11:18:39.701Z,12.70
2022-08-19T11:21:12.364Z,13.07
2022-08-19T11:23:39.602Z,12.23
2022-08-19T11:26:06.542Z,13.37
2022-08-19T11:28:33.293Z,13.37
2022-08-19T11:31:00.856Z,12.07
2022-08-19T11:33:30.018Z,12.00
2022-08-19T11:35:59.441Z,11.60
2022-08-19T11:38:26.913Z,11.17
2022-08-19T11:40:59.347Z,11.40
2022-08-19T11:43:27.688Z,11.47
2022-08-19T11:45:55.400Z,10.27
2022-08-19T11:48:23.000Z,12.00
2022-08-19T11:50:51.000Z,10.57
2022-08-19T11:53:19.752Z,11.17
2022-08-19T11:55:49.604Z,10.83
2022-08-19T11:58:18.901Z,10.83
2022-08-19T12:00:46.117Z,10.57
2022-08-19T12:03:14.051Z,10.00
2022-08-19T12:05:41.507Z,10.73
2022-08-19T12:08:08.963Z,10.60
2022-08-19T12:10:36.359Z,9.33
2022-08-19T12:13:03.733Z,10.80
2022-08-19T12:15:37.141Z,11.10
2022-08-19T12:18:05.026Z,10.53
2022-08-19T12:20:36.411Z,10.97
2022-08-19T12:23:04.501Z,9.57
2022-08-19T12:25:31.826Z,9.43
2022-08-19T12:27:59.497Z,10.97
2022-08-19T12:30:26.603Z,9.40
2022-08-19T12:32:53.725Z,9.67
2022-08-19T12:35:23.401Z,8.70
2022-08-19T12:37:57.175Z,9.33
2022-08-19T12:40:24.308Z,9.20
2022-08-19T12:42:53.024Z,9.03
2022-08-19T12:45:20.107Z,10.23
2022-08-19T12:47:47.796Z,8.90
2022-08-19T12:50:16.302Z,9.70
2022-08-19T12:52:43.360Z,9.77
2022-08-19T12:55:13.012Z,10.30
2022-08-19T12:57:39.947Z,9.20
2022-08-19T13:00:14.655Z,9.53
2022-08-19T13:02:50.594Z,9.33
2022-08-19T13:05:23.739Z,9.47
2022-08-19T13:07:52.229Z,10.07
2022-08-19T13:10:21.627Z,9.43
2022-08-19T13:12:51.297Z,9.50
2022-08-19T13:15:24.117Z,9.17
2022-08-19T13:17:53.428Z,9.77
2022-08-19T13:20:21.882Z,10.90
2022-08-19T13:22:49.327Z,10.73
2022-08-19T13:25:18.489Z,10.07
2022-08-19T13:27:45.231Z,11.27
2022-08-19T13:30:32.608Z,10.07
2022-08-19T13:33:11.546Z,10.23
2022-08-19T13:35:51.213Z,10.30
2022-08-19T13:38:21.365Z,10.73
2022-08-19T13:40:50.532Z,9.93
2022-08-19T13:43:22.827Z,10.53
2022-08-19T13:45:56.848Z,10.07
2022-08-19T13:48:24.563Z,10.47
2022-08-19T13:50:55.535Z,12.50
2022-08-19T13:53:22.328Z,10.07
2022-08-19T13:55:50.851Z,10.20
2022-08-19T13:58:17.470Z,10.07
2022-08-19T14:00:46.302Z,11.50
2022-08-19T14:03:13.883Z,10.70
2022-08-19T14:05:40.749Z,10.40
2022-08-19T14:08:07.898Z,9.53
2022-08-19T14:10:34.589Z,10.27
2022-08-19T14:13:03.998Z,10.83
2022-08-19T14:15:31.921Z,9.67
2022-08-19T14:17:58.850Z,10.80
2022-08-19T14:20:25.967Z,10.47
2022-08-19T14:22:53.870Z,10.43
2022-08-19T14:25:24.862Z,10.20
2022-08-19T14:27:51.669Z,9.80
2022-08-19T14:30:23.149Z,11.03
2022-08-19T14:32:49.911Z,11.03
2022-08-19T14:35:17.263Z,10.07
2022-08-19T14:37:46.171Z,9.20
2022-08-19T14:40:15.839Z,9.57
2022-08-19T14:42:43.898Z,10.23
2022-08-19T14:45:12.084Z,10.27
2022-08-19T14:47:39.846Z,9.80
2022-08-19T14:50:12.021Z,9.17
2022-08-19T14:52:45.872Z,9.63
2022-08-19T14:55:12.527Z,9.03
2022-08-19T14:57:41.851Z,8.13
2022-08-19T15:00:13.756Z,7.97
2022-08-19T15:02:41.414Z,9.30
2022-08-19T15:05:08.520Z,7.83
2022-08-19T15:07:35.121Z,8.83
2022-08-19T15:10:01.987Z,8.23
2022-08-19T15:12:28.605Z,8.50
2022-08-19T15:14:56.782Z,9.13
2022-08-19T15:17:45.840Z,8.27
2022-08-19T15:20:13.445Z,8.40
2022-08-19T15:22:40.954Z,8.07
2022-08-19T15:25:09.764Z,8.97
2022-08-19T15:27:39.911Z,8.53
2022-08-19T15:30:09.523Z,8.23
2022-08-19T15:32:36.806Z,8.03
2022-08-19T15:35:05.474Z,8.60
2022-08-19T15:37:32.093Z,8.00
2022-08-19T15:40:02.165Z,7.20
2022-08-19T15:42:29.936Z,9.70
2022-08-19T15:45:00.360Z,7.93
2022-08-19T15:47:34.776Z,8.70
2022-08-19T15:50:06.435Z,10.23
2022-08-19T15:52:39.591Z,9.67
2022-08-19T15:55:32.319Z,10.07
2022-08-19T15:58:28.425Z,9.97
2022-08-19T16:01:16.537Z,11.13
2022-08-19T16:04:04.406Z,11.00
2022-08-19T16:06:39.553Z,10.50
2022-08-19T16:09:06.309Z,10.47
2022-08-19T16:11:39.467Z,10.37
2022-08-19T16:14:09.284Z,9.83
2022-08-19T16:16:37.157Z,10.70
2022-08-19T16:19:10.553Z,9.90
2022-08-19T16:21:41.464Z,10.60
2022-08-19T16:24:12.086Z,10.70
2022-08-19T16:26:39.661Z,9.80
2022-08-19T16:29:09.116Z,10.07
2022-08-19T16:31:41.327Z,9.13
2022-08-19T16:34:07.926Z,10.17
2022-08-19T16:36:34.659Z,8.37
2022-08-19T16:39:02.015Z,9.50
2022-08-19T16:41:30.744Z,9.27
2022-08-19T16:43:57.388Z,10.10
2022-08-19T16:46:26.903Z,8.73
2022-08-19T16:48:54.597Z,9.53
2022-08-19T16:51:22.733Z,8.90
2022-08-19T16:53:51.981Z,8.83
2022-08-19T16:56:19.486Z,8.37
2022-08-19T16:58:46.093Z,7.87
2022-08-19T17:01:13.669Z,7.73
2022-08-19T17:03:41.601Z,8.20
2022-08-19T17:06:17.874Z,8.70
2022-08-19T17:08:49.492Z,8.20
2022-08-19T17:11:18.943Z,8.43
2022-08-19T17:13:47.879Z,7.60
2022-08-19T17:16:16.800Z,7.53
2022-08-19T17:18:43.508Z,7.33
2022-08-19T17:21:10.343Z,7.93
2022-08-19T17:23:43.241Z,6.70
2022-08-19T17:26:18.114Z,7.97
2022-08-19T17:28:50.405Z,6.17
2022-08-19T17:31:19.997Z,6.67
2022-08-19T17:33:48.506Z,7.30
2022-08-19T17:36:17.561Z,6.40
2022-08-19T17:38:44.836Z,6.77
2022-08-19T17:41:11.657Z,7.43
2022-08-19T17:43:42.804Z,6.03
2022-08-19T17:46:20.497Z,6.60
2022-08-19T17:48:52.892Z,6.53
2022-08-19T17:51:33.622Z,6.60
2022-08-19T17:54:00.591Z,7.23
2022-08-19T17:56:28.696Z,6.30
2022-08-19T17:58:59.623Z,8.73
2022-08-19T18:01:27.005Z,7.33
2022-08-19T18:03:59.831Z,6.83
2022-08-19T18:06:26.408Z,6.50
2022-08-19T18:08:53.057Z,6.90
2022-08-19T18:11:19.925Z,6.77
2022-08-19T18:13:47.390Z,11.37
2022-08-19T18:16:14.013Z,6.90
2022-08-19T18:18:42.306Z,6.97
2022-08-19T18:21:09.930Z,6.47
2022-08-19T18:23:44.029Z,6.47
2022-08-19T18:26:11.592Z,7.20
2022-08-19T18:28:39.711Z,7.03
2022-08-19T18:31:16.735Z,7.33
2022-08-19T18:33:44.716Z,8.13
2022-08-19T18:36:11.961Z,8.53
2022-08-19T18:38:57.059Z,8.67
2022-08-19T18:41:43.453Z,8.50
2022-08-19T18:44:29.087Z,9.40
2022-08-19T18:47:14.212Z,10.30
2022-08-19T18:49:40.814Z,11.40
2022-08-19T18:52:07.500Z,10.37
2022-08-19T18:54:34.429Z,12.13
2022-08-19T18:57:01.075Z,12.83
2022-08-19T18:59:30.226Z,12.03
2022-08-19T19:01:59.159Z,12.10
2022-08-19T19:04:29.308Z,13.63
2022-08-19T19:06:56.132Z,15.33
2022-08-19T19:09:24.802Z,14.53
2022-08-19T19:11:54.879Z,14.27
2022-08-19T19:14:49.905Z,14.77
2022-08-19T19:17:17.410Z,16.17
2022-08-19T19:19:44.163Z,17.13
2022-08-19T19:22:17.572Z,15.57
2022-08-19T19:24:44.265Z,15.40
2022-08-19T19:27:12.988Z,16.53
2022-08-19T19:29:40.402Z,17.10
2022-08-19T19:32:16.977Z,16.23
2022-08-19T19:34:43.621Z,16.57
2022-08-19T19:37:10.242Z,18.30
2022-08-19T19:39:46.113Z,17.20
2022-08-19T19:42:19.739Z,17.83
2022-08-19T19:44:50.145Z,16.30
2022-08-19T19:47:18.745Z,18.13
2022-08-19T19:50:13.355Z,18.17
2022-08-19T19:52:40.496Z,17.53
2022-08-19T19:55:09.352Z,18.43
2022-08-19T19:57:36.004Z,18.57
2022-08-19T20:00:03.031Z,18.17
2022-08-19T20:02:29.638Z,15.87
2022-08-19T20:04:57.097Z,16.43
2022-08-19T20:07:43.689Z,18.20
2022-08-19T20:10:10.318Z,19.27
2022-08-19T20:12:36.938Z,20.20
2022-08-19T20:15:11.628Z,18.83
2022-08-19T20:17:42.191Z,18.10
2022-08-19T20:20:10.997Z,18.27
2022-08-19T20:22:39.947Z,19.57
2022-08-19T20:25:08.160Z,18.37
2022-08-19T20:27:40.172Z,18.50
2022-08-19T20:30:09.187Z,20.83
2022-08-19T20:32:46.916Z,18.30
2022-08-19T20:35:17.630Z,19.60
2022-08-19T20:37:44.840Z,19.13
2022-08-19T20:40:16.315Z,18.87
2022-08-19T20:42:47.215Z,19.73
2022-08-19T20:45:30.920Z,17.83
2022-08-19T20:48:02.463Z,18.83
2022-08-19T20:50:30.342Z,17.40
2022-08-19T20:52:57.660Z,18.40
2022-08-19T20:55:26.398Z,18.70
2022-08-19T20:57:53.439Z,17.30
2022-08-19T21:00:20.318Z,17.80
2022-08-19T21:02:46.935Z,17.97
2022-08-19T21:05:13.963Z,18.70
2022-08-19T21:07:40.717Z,20.20
2022-08-19T21:10:07.781Z,18.63
2022-08-19T21:12:34.383Z,17.67
2022-08-19T21:15:06.699Z,17.37
2022-08-19T21:26:10.124Z,20.57
2022-08-19T21:28:36.860Z,19.27
2022-08-19T21:36:16.691Z,17.50
2022-08-19T21:39:02.859Z,17.10
2022-08-19T21:41:50.696Z,17.23
2022-08-19T21:44:22.828Z,16.80
2022-08-19T21:46:51.901Z,18.20
2022-08-19T21:49:18.883Z,17.90
2022-08-19T21:51:53.167Z,17.30
2022-08-19T21:57:49.655Z,19.57
2022-08-19T22:00:19.872Z,17.87
2022-08-19T22:02:46.484Z,16.60
2022-08-19T22:05:13.535Z,19.50
2022-08-19T22:07:42.838Z,17.70
2022-08-19T22:10:10.660Z,16.40
2022-08-19T22:12:39.250Z,19.60
2022-08-19T22:15:15.484Z,17.70
2022-08-19T22:17:45.335Z,17.83
2022-08-19T22:20:16.818Z,16.97
2022-08-19T22:22:50.446Z,16.83
2022-08-19T22:25:31.960Z,18.50
2022-08-19T22:28:01.543Z,16.57
